Time;durP1;ratioP1;P1;durP2;ratioP2;P2;SDS_P1;SDS_P2;PMS_P1;PMS_P2;Temp;Humidity;BMP_temperature;BMP_pressure;BME280_temperature;BME280_humidity;BME280_pressure;Samples;Min_cycle;Max_cycle;Signal;HPM_P1;HPM_P2
2023/12/08 00:00:10;;;;;;;5.50;2.80;;;;;;;2.79;82.79;98985.06;331008;29;4543;-86
2023/12/08 00:00:22;;;;;;;7.00;3.00;;;;;;;2.77;82.70;98979.94;327204;29;16144;-87
2023/12/08 00:00:34;;;;;;;6.68;3.10;;;;;;;2.79;82.61;98983.34;331295;29;4641;-86
2023/12/08 00:00:47;;;;;;;6.00;3.00;;;;;;;2.80;82.42;98982.47;330990;29;4635;-86
2023/12/08 00:00:59;;;;;;;4.25;2.92;;;;;;;2.78;83.13;98984.22;332168;29;16849;-86
2023/12/08 00:01:11;;;;;;;4.72;3.05;;;;;;;2.79;83.00;98980.75;335299;29;4544;-86
2023/12/08 00:01:23;;;;;;;5.60;3.13;;;;;;;2.84;82.87;98982.41;333747;28;4512;-87
2023/12/08 00:01:35;;;;;;;6.03;3.25;;;;;;;2.86;82.76;98975.56;335262;29;4634;-86
2023/12/08 00:01:47;;;;;;;5.68;3.35;;;;;;;2.88;82.23;98984.09;336796;28;4485;-87
2023/12/08 00:02:00;;;;;;;5.78;3.38;;;;;;;2.87;82.66;98977.25;333626;28;17008;-87
2023/12/08 00:02:12;;;;;;;5.30;3.00;;;;;;;2.87;82.38;98972.13;333369;29;4632;-86
2023/12/08 00:02:24;;;;;;;5.00;2.80;;;;;;;2.88;82.65;98973.81;331423;29;18008;-87
2023/12/08 00:02:36;;;;;;;4.72;2.72;;;;;;;2.88;82.51;98971.25;328126;29;4700;-87
2023/12/08 00:02:48;;;;;;;4.55;2.33;;;;;;;2.91;82.68;98966.09;332422;29;4731;-86
2023/12/08 00:03:00;;;;;;;4.10;2.30;;;;;;;2.93;83.03;98966.91;329934;29;16746;-86
2023/12/08 00:03:13;;;;;;;5.05;2.65;;;;;;;2.92;82.97;98970.38;332300;29;4532;-87
2023/12/08 00:03:25;;;;;;;4.83;2.77;;;;;;;2.87;82.81;98962.72;331135;29;17583;-86
2023/12/08 00:03:37;;;;;;;4.68;2.90;;;;;;;2.93;82.68;98972.06;333785;29;4640;-86
2023/12/08 00:03:49;;;;;;;4.32;2.90;;;;;;;2.92;83.02;98967.81;331027;29;16888;-87
2023/12/08 00:04:01;;;;;;;4.70;2.70;;;;;;;2.88;82.71;98968.69;332438;29;4621;-86
2023/12/08 00:04:13;;;;;;;4.72;2.67;;;;;;;2.91;82.62;98959.22;327330;29;4540;-87
2023/12/08 00:04:25;;;;;;;5.55;3.00;;;;;;;2.91;82.87;98969.50;329688;29;18797;-86
2023/12/08 00:04:38;;;;;;;5.45;2.92;;;;;;;2.91;82.42;98959.22;332592;29;4730;-86
2023/12/08 00:04:50;;;;;;;5.10;2.80;;;;;;;2.92;82.43;98954.97;329513;29;18124;-86
2023/12/08 00:05:03;;;;;;;4.85;2.70;;;;;;;2.93;82.48;98956.66;330388;29;4959;-86
2023/12/08 00:05:15;;;;;;;5.35;2.92;;;;;;;2.86;82.46;98960.16;328864;29;4840;-87
2023/12/08 00:05:27;;;;;;;5.18;2.90;;;;;;;2.87;81.96;98951.59;330788;29;4546;-86
2023/12/08 00:05:39;;;;;;;4.68;2.83;;;;;;;2.87;82.64;98951.59;329707;29;4672;-87
2023/12/08 00:05:52;;;;;;;4.40;2.70;;;;;;;2.85;82.34;98943.06;332518;29;4546;-87
2023/12/08 00:06:06;;;;;;;4.97;2.90;;;;;;;2.85;82.47;98949.03;331609;29;4875;-87
2023/12/08 00:06:19;;;;;;;6.70;3.35;;;;;;;2.80;83.22;98941.41;335016;29;16734;-86
2023/12/08 00:06:31;;;;;;;6.82;3.20;;;;;;;2.85;82.56;98940.50;331057;29;16786;-86
2023/12/08 00:06:43;;;;;;;5.97;2.92;;;;;;;2.84;83.33;98942.22;332409;29;4520;-86
2023/12/08 00:06:55;;;;;;;5.57;2.67;;;;;;;2.85;83.59;98932.81;330647;29;18794;-87
2023/12/08 00:07:07;;;;;;;4.70;2.60;;;;;;;2.84;83.40;98941.34;326744;29;4635;-87
2023/12/08 00:07:19;;;;;;;4.60;2.75;;;;;;;2.82;82.97;98938.84;332383;29;4618;-86
2023/12/08 00:07:31;;;;;;;5.40;3.05;;;;;;;2.80;82.89;98941.41;327305;29;18247;-87
2023/12/08 00:07:43;;;;;;;5.47;3.40;;;;;;;2.80;83.09;98930.31;331416;29;4511;-87
2023/12/08 00:07:56;;;;;;;6.00;3.30;;;;;;;2.82;83.22;98933.69;328580;29;17538;-86
2023/12/08 00:08:08;;;;;;;5.38;2.80;;;;;;;2.82;82.51;98932.81;332367;29;4599;-87
2023/12/08 00:08:20;;;;;;;5.30;2.72;;;;;;;2.79;82.67;98929.44;330588;29;7607;-87
2023/12/08 00:08:33;;;;;;;5.25;2.88;;;;;;;2.80;82.62;98933.72;328548;29;4550;-86
2023/12/08 00:08:45;;;;;;;5.68;2.90;;;;;;;2.84;82.59;98926.81;332583;29;4502;-86
2023/12/08 00:08:57;;;;;;;5.63;2.70;;;;;;;2.86;82.83;98929.34;331013;29;17714;-86
2023/12/08 00:09:09;;;;;;;6.18;2.75;;;;;;;2.88;82.65;98927.63;332915;29;4631;-86
2023/12/08 00:09:21;;;;;;;6.30;3.03;;;;;;;2.87;82.47;98926.78;330390;29;17468;-86
2023/12/08 00:09:34;;;;;;;6.13;3.00;;;;;;;2.88;82.78;98927.63;332266;29;4736;-86
2023/12/08 00:09:46;;;;;;;5.20;2.67;;;;;;;2.86;82.65;98927.66;330974;29;16669;-86
2023/12/08 00:09:58;;;;;;;4.57;2.80;;;;;;;2.86;83.07;98927.66;333846;29;4663;-87
2023/12/08 00:10:10;;;;;;;5.03;3.13;;;;;;;2.86;82.91;98919.09;328485;29;4583;-86
2023/12/08 00:10:22;;;;;;;5.72;3.28;;;;;;;2.80;83.17;98920.88;331466;29;9595;-87
2023/12/08 00:10:34;;;;;;;5.72;3.00;;;;;;;2.82;82.69;98915.72;335076;29;4541;-85
2023/12/08 00:10:46;;;;;;;6.90;3.05;;;;;;;2.79;82.83;98914.03;332649;29;6985;-87
2023/12/08 00:10:58;;;;;;;7.55;3.25;;;;;;;2.80;83.36;98922.59;333092;29;4934;-86
2023/12/08 00:11:13;;;;;;;5.40;3.00;;;;;;;2.82;82.76;98920.88;333723;29;4529;-86
2023/12/08 00:11:25;;;;;;;5.38;3.00;;;;;;;2.86;82.52;98919.09;325836;29;18383;-87
2023/12/08 00:11:37;;;;;;;5.20;3.00;;;;;;;2.80;82.68;98920.88;330544;29;18725;-87
2023/12/08 00:11:49;;;;;;;5.85;3.13;;;;;;;2.82;82.45;98920.00;330994;29;4800;-86
2023/12/08 00:12:01;;;;;;;6.00;3.08;;;;;;;2.80;82.85;98926.00;330339;29;16883;-86
2023/12/08 00:12:14;;;;;;;5.57;3.05;;;;;;;2.84;82.43;98920.81;331726;29;4583;-86
2023/12/08 00:12:26;;;;;;;6.15;3.00;;;;;;;2.83;83.06;98926.84;333345;29;8309;-86
2023/12/08 00:12:38;;;;;;;6.30;2.92;;;;;;;2.82;82.61;98932.81;331213;29;18062;-87
2023/12/08 00:12:50;;;;;;;6.05;3.08;;;;;;;2.80;82.49;98928.56;330809;29;4689;-85
2023/12/08 00:13:02;;;;;;;5.20;2.95;;;;;;;2.79;82.71;98931.16;333538;28;16745;-87
2023/12/08 00:13:14;;;;;;;5.07;2.97;;;;;;;2.77;83.02;98933.75;336419;28;4611;-87
2023/12/08 00:13:26;;;;;;;4.68;2.63;;;;;;;2.78;82.83;98932.03;334276;28;4800;-87
2023/12/08 00:13:38;;;;;;;4.70;2.83;;;;;;;2.78;82.37;98935.44;335297;29;4571;-87
2023/12/08 00:13:50;;;;;;;4.72;2.60;;;;;;;2.82;82.55;98933.69;331627;29;4625;-87
2023/12/08 00:14:02;;;;;;;5.32;2.67;;;;;;;2.84;82.12;98936.22;331488;29;17843;-87
2023/12/08 00:14:14;;;;;;;5.28;2.88;;;;;;;2.86;82.20;98935.34;334028;29;4553;-87
2023/12/08 00:14:26;;;;;;;5.97;3.20;;;;;;;2.82;82.19;98927.69;327558;29;4615;-86
2023/12/08 00:14:38;;;;;;;5.65;2.95;;;;;;;2.83;82.70;98925.13;330269;29;18119;-87
2023/12/08 00:14:50;;;;;;;4.70;2.63;;;;;;;2.87;82.74;98925.94;332865;29;4729;-87
2023/12/08 00:15:03;;;;;;;5.38;2.78;;;;;;;2.83;82.67;98929.41;330993;29;18014;-87
2023/12/08 00:15:15;;;;;;;6.20;2.97;;;;;;;2.85;82.29;98925.09;331888;29;4555;-86
2023/12/08 00:15:27;;;;;;;6.00;3.00;;;;;;;2.87;82.28;98923.38;328336;29;16797;-87
2023/12/08 00:15:39;;;;;;;4.68;2.85;;;;;;;2.86;82.24;98921.66;325676;29;4653;-87
2023/12/08 00:15:51;;;;;;;4.50;2.83;;;;;;;2.85;82.24;98922.53;331124;29;4515;-86
2023/12/08 00:16:04;;;;;;;5.18;3.00;;;;;;;2.87;82.60;98916.50;326445;29;4611;-86
2023/12/08 00:16:16;;;;;;;5.95;3.00;;;;;;;2.86;82.24;98919.09;330982;29;4523;-86
2023/12/08 00:16:29;;;;;;;6.32;2.80;;;;;;;2.85;83.05;98912.28;330483;29;17988;-87
2023/12/08 00:16:41;;;;;;;6.88;2.78;;;;;;;2.82;82.63;98910.59;333894;29;4660;-86
2023/12/08 00:16:54;;;;;;;5.90;2.90;;;;;;;2.79;82.95;98919.16;332031;29;16425;-87
2023/12/08 00:17:06;;;;;;;5.00;2.55;;;;;;;2.78;82.98;98914.91;334063;29;4520;-86
2023/12/08 00:17:18;;;;;;;5.32;2.80;;;;;;;2.80;82.27;98909.78;329824;29;4692;-86
2023/12/08 00:17:29;;;;;;;4.80;2.70;;;;;;;2.84;82.78;98908.00;328423;29;17583;-86
2023/12/08 00:17:43;;;;;;;4.88;2.83;;;;;;;2.85;82.13;98912.28;331116;29;4572;-87
2023/12/08 00:17:55;;;;;;;4.57;2.75;;;;;;;2.84;82.26;98905.44;326130;29;15970;-87
2023/12/08 00:18:07;;;;;;;4.57;2.78;;;;;;;2.85;82.34;98909.69;332864;29;4529;-86
2023/12/08 00:18:19;;;;;;;7.28;3.30;;;;;;;2.85;82.03;98907.97;330287;29;18240;-87
2023/12/08 00:18:32;;;;;;;7.00;3.17;;;;;;;2.89;81.98;98908.78;333908;29;4565;-86
2023/12/08 00:18:44;;;;;;;5.85;2.92;;;;;;;2.87;82.20;98913.09;330835;29;4934;-86
2023/12/08 00:18:56;;;;;;;4.57;2.90;;;;;;;2.87;82.20;98908.81;332360;29;4599;-86
2023/12/08 00:19:10;;;;;;;4.65;2.72;;;;;;;2.88;81.83;98907.94;329056;29;11690;-87
2023/12/08 00:19:22;;;;;;;6.30;2.90;;;;;;;2.87;81.39;98906.25;331676;29;4567;-86
2023/12/08 00:19:34;;;;;;;6.68;2.90;;;;;;;2.85;81.81;98907.97;331597;29;18113;-86
2023/12/08 00:19:46;;;;;;;6.03;2.88;;;;;;;2.82;82.00;98902.03;332338;29;4574;-86
2023/12/08 00:19:58;;;;;;;6.05;2.90;;;;;;;2.79;81.97;98898.63;332169;29;16694;-86
2023/12/08 00:20:11;;;;;;;6.65;3.10;;;;;;;2.78;81.92;98906.38;323637;29;17934;-87
2023/12/08 00:20:23;;;;;;;5.32;3.00;;;;;;;2.75;81.84;98894.41;332941;29;4605;-87
2023/12/08 00:20:35;;;;;;;6.13;3.13;;;;;;;2.80;82.22;98900.34;328677;29;18328;-87
2023/12/08 00:20:48;;;;;;;5.85;3.13;;;;;;;2.83;82.66;98890.91;333886;29;4704;-86
2023/12/08 00:21:00;;;;;;;5.25;2.78;;;;;;;2.84;82.12;98890.03;331304;29;18046;-87
2023/12/08 00:21:12;;;;;;;4.88;2.63;;;;;;;2.84;82.42;98895.16;333420;29;4736;-86
2023/12/08 00:21:25;;;;;;;5.95;2.70;;;;;;;2.84;82.67;98890.03;330635;29;13203;-86
2023/12/08 00:21:37;;;;;;;7.47;2.80;;;;;;;2.83;82.46;98884.03;328519;29;4533;-86
2023/12/08 00:21:49;;;;;;;7.65;2.85;;;;;;;2.82;82.46;98886.63;331827;29;12942;-87
2023/12/08 00:22:02;;;;;;;5.03;2.80;;;;;;;2.80;82.64;98874.69;333545;29;4700;-86
2023/12/08 00:22:14;;;;;;;4.38;2.83;;;;;;;2.82;82.54;98881.50;334047;29;4577;-86
2023/12/08 00:22:27;;;;;;;4.18;2.60;;;;;;;2.84;82.58;98874.63;330357;29;16497;-86
2023/12/08 00:22:39;;;;;;;4.60;2.63;;;;;;;2.83;82.72;98880.63;329441;29;10855;-87
2023/12/08 00:22:52;;;;;;;6.45;2.80;;;;;;;2.84;82.95;98875.50;333562;29;4620;-86
2023/12/08 00:23:04;;;;;;;7.57;3.00;;;;;;;2.79;82.43;98872.97;332715;29;4547;-86
2023/12/08 00:23:16;;;;;;;6.07;2.97;;;;;;;2.82;82.61;98871.22;330578;29;17721;-87
2023/12/08 00:23:28;;;;;;;4.80;2.92;;;;;;;2.79;82.77;98872.97;334947;29;4548;-87
2023/12/08 00:23:40;;;;;;;5.07;3.08;;;;;;;2.80;83.05;98874.69;331853;29;18220;-86
2023/12/08 00:23:52;;;;;;;5.13;2.78;;;;;;;2.82;82.62;98866.97;334387;29;5318;-86
2023/12/08 00:24:05;;;;;;;5.85;2.83;;;;;;;2.78;82.77;98871.28;331062;29;16585;-87
2023/12/08 00:24:17;;;;;;;6.50;3.13;;;;;;;2.79;82.19;98872.13;333596;29;4614;-86
2023/12/08 00:24:29;;;;;;;6.00;3.15;;;;;;;2.74;82.35;98872.19;327758;29;4554;-87
2023/12/08 00:24:41;;;;;;;6.80;3.22;;;;;;;2.78;82.75;98880.72;330116;29;6838;-87
2023/12/08 00:24:53;;;;;;;7.25;3.35;;;;;;;2.76;82.48;98883.28;334056;29;4680;-86
2023/12/08 00:25:05;;;;;;;6.63;3.28;;;;;;;2.76;82.71;98883.28;335202;28;11743;-87
2023/12/08 00:25:17;;;;;;;6.72;3.45;;;;;;;2.77;82.67;98886.69;333888;28;17938;-87
2023/12/08 00:25:29;;;;;;;6.32;3.13;;;;;;;2.77;82.73;98884.97;335175;29;4581;-87
2023/12/08 00:25:41;;;;;;;5.75;2.80;;;;;;;2.79;82.74;98890.09;332690;29;16680;-86
2023/12/08 00:25:53;;;;;;;5.22;2.58;;;;;;;2.79;82.12;98893.50;327957;29;4774;-87
2023/12/08 00:26:05;;;;;;;5.80;3.00;;;;;;;2.77;82.07;98895.25;329935;29;17302;-86
2023/12/08 00:26:18;;;;;;;6.50;3.25;;;;;;;2.81;82.28;98901.19;333182;29;4528;-86
2023/12/08 00:26:30;;;;;;;6.32;3.08;;;;;;;2.82;81.63;98891.75;331150;29;4779;-86
2023/12/08 00:26:42;;;;;;;5.40;2.88;;;;;;;2.82;81.81;98907.16;327366;29;18286;-87
2023/12/08 00:26:54;;;;;;;5.40;2.92;;;;;;;2.85;82.17;98915.69;331104;29;5423;-87
2023/12/08 00:27:07;;;;;;;6.22;3.13;;;;;;;2.87;82.24;98910.53;331092;29;4546;-87
2023/12/08 00:27:19;;;;;;;6.95;3.00;;;;;;;2.85;82.10;98912.28;335205;29;4497;-86
2023/12/08 00:27:31;;;;;;;6.75;3.10;;;;;;;2.86;82.11;98914.81;330047;28;4880;-87
2023/12/08 00:27:43;;;;;;;5.60;3.25;;;;;;;2.89;82.08;98913.94;335929;28;4519;-87
2023/12/08 00:27:55;;;;;;;6.28;3.45;;;;;;;2.91;82.10;98912.19;336627;28;4552;-87
2023/12/08 00:28:08;;;;;;;6.50;3.13;;;;;;;2.93;82.08;98902.75;333954;28;18203;-87
2023/12/08 00:28:20;;;;;;;5.85;3.03;;;;;;;2.95;82.63;98906.13;333798;29;4574;-86
2023/12/08 00:28:32;;;;;;;4.82;2.72;;;;;;;2.94;82.24;98901.88;330939;29;17768;-86
2023/12/08 00:28:44;;;;;;;5.85;2.80;;;;;;;2.95;82.16;98899.28;327907;29;4577;-86
2023/12/08 00:28:56;;;;;;;5.75;2.70;;;;;;;2.97;82.37;98896.69;329824;29;16610;-87
2023/12/08 00:29:08;;;;;;;4.88;2.72;;;;;;;2.99;82.15;98900.09;333655;29;4733;-86
2023/12/08 00:29:20;;;;;;;4.47;2.67;;;;;;;2.96;81.92;98889.88;334892;28;4762;-86
2023/12/08 00:29:32;;;;;;;5.20;2.83;;;;;;;2.96;82.14;98885.59;334767;28;17953;-86
2023/12/08 00:29:45;;;;;;;5.47;3.00;;;;;;;3.00;82.16;98886.41;336436;28;4527;-85
2023/12/08 00:29:57;;;;;;;5.90;2.88;;;;;;;2.97;82.04;98886.44;332820;29;4549;-87
2023/12/08 00:30:11;;;;;;;5.90;3.00;;;;;;;2.93;82.21;98887.34;334312;29;4732;-87
2023/12/08 00:30:24;;;;;;;5.35;3.10;;;;;;;2.96;82.23;98879.63;326145;29;18063;-86
2023/12/08 00:30:36;;;;;;;4.93;2.83;;;;;;;2.97;82.09;98883.88;333447;29;4500;-86
2023/12/08 00:30:48;;;;;;;6.47;2.97;;;;;;;2.93;81.85;98875.34;330684;29;16544;-87
2023/12/08 00:30:59;;;;;;;6.25;3.00;;;;;;;2.96;82.11;98887.31;330906;29;4517;-87
2023/12/08 00:31:12;;;;;;;5.93;3.20;;;;;;;2.95;81.97;98889.00;331941;29;4545;-86
2023/12/08 00:31:24;;;;;;;4.93;2.80;;;;;;;2.97;82.26;98896.69;330658;29;17463;-86
2023/12/08 00:31:36;;;;;;;5.25;2.80;;;;;;;2.97;82.33;98892.41;334016;29;4552;-85
2023/12/08 00:31:48;;;;;;;5.82;2.72;;;;;;;2.99;81.88;98885.53;331075;29;12919;-87
2023/12/08 00:32:00;;;;;;;5.10;2.67;;;;;;;2.91;81.13;98886.50;333668;29;4503;-86
2023/12/08 00:32:12;;;;;;;4.97;2.67;;;;;;;2.91;81.43;98891.66;331729;29;4567;-87
2023/12/08 00:32:24;;;;;;;5.07;2.80;;;;;;;2.93;81.91;98892.47;333433;29;4537;-86
2023/12/08 00:32:36;;;;;;;5.88;2.97;;;;;;;2.89;81.31;98896.78;333983;29;4676;-85
2023/12/08 00:32:49;;;;;;;6.40;3.10;;;;;;;2.91;81.50;98897.63;334210;28;19211;-85
2023/12/08 00:33:02;;;;;;;5.28;2.97;;;;;;;2.87;81.47;98895.97;336066;28;4567;-86
2023/12/08 00:33:15;;;;;;;5.40;3.08;;;;;;;2.90;81.34;98897.66;330572;28;17057;-87
2023/12/08 00:33:27;;;;;;;5.68;3.03;;;;;;;2.89;81.49;98898.53;336476;28;4482;-86
2023/12/08 00:33:40;;;;;;;5.40;2.95;;;;;;;2.87;81.61;98887.44;330230;29;18153;-87
2023/12/08 00:33:52;;;;;;;5.72;2.88;;;;;;;2.90;81.71;98884.84;334735;29;4584;-87
2023/12/08 00:34:04;;;;;;;6.15;3.08;;;;;;;2.93;81.73;98892.47;331261;29;13091;-87
2023/12/08 00:34:18;;;;;;;5.60;2.95;;;;;;;2.91;81.54;98886.50;330863;29;4567;-86
2023/12/08 00:34:30;;;;;;;5.78;2.92;;;;;;;2.93;81.56;98885.63;328484;29;16105;-87
2023/12/08 00:34:42;;;;;;;6.03;2.92;;;;;;;2.93;81.12;98883.03;327085;29;4518;-86
2023/12/08 00:34:55;;;;;;;6.68;3.08;;;;;;;2.96;81.08;98883.03;327571;29;17682;-87
2023/12/08 00:35:08;;;;;;;7.15;3.33;;;;;;;2.93;81.00;98882.22;332435;29;4532;-86
2023/12/08 00:35:22;;;;;;;7.22;3.53;;;;;;;2.91;80.75;98882.22;329145;29;13185;-86
2023/12/08 00:35:34;;;;;;;5.43;3.08;;;;;;;2.94;81.23;98876.22;328604;29;10414;-87
2023/12/08 00:35:50;;;;;;;5.10;3.05;;;;;;;2.96;81.27;98869.34;330862;29;4572;-86
2023/12/08 00:36:13;;;;;;;5.82;3.20;;;;;;;2.99;81.14;98871.84;328525;29;17730;-86
2023/12/08 00:36:25;;;;;;;5.28;2.80;;;;;;;2.99;81.31;98871.84;330346;29;16019;-86
2023/12/08 00:36:40;;;;;;;4.95;2.88;;;;;;;3.00;81.52;98876.97;333713;29;4533;-86
2023/12/08 00:36:52;;;;;;;5.47;3.00;;;;;;;3.00;81.82;98873.56;330722;29;16099;-86
2023/12/08 00:37:04;;;;;;;6.15;2.92;;;;;;;3.03;81.36;98876.06;332327;29;16419;-87
2023/12/08 00:37:16;;;;;;;6.03;2.83;;;;;;;3.00;81.22;98876.13;335010;29;4521;-86
2023/12/08 00:37:28;;;;;;;4.90;2.63;;;;;;;3.02;81.66;98878.66;333573;29;4560;-86
2023/12/08 00:37:40;;;;;;;5.15;2.63;;;;;;;3.04;81.17;98877.78;332052;29;17269;-87
2023/12/08 00:37:52;;;;;;;5.38;2.65;;;;;;;3.01;81.43;98882.94;337267;29;4510;-87
2023/12/08 00:38:04;;;;;;;5.07;2.72;;;;;;;3.00;80.96;98881.25;333532;29;16644;-87
2023/12/08 00:38:16;;;;;;;4.85;2.97;;;;;;;3.03;81.10;98876.06;334528;29;4529;-86
2023/12/08 00:38:28;;;;;;;6.10;3.17;;;;;;;3.04;81.35;98871.78;335245;29;4550;-87
2023/12/08 00:38:41;;;;;;;6.35;3.25;;;;;;;3.06;81.47;98876.03;332252;29;17631;-87
2023/12/08 00:38:54;;;;;;;6.30;3.28;;;;;;;3.06;81.61;98876.03;329187;29;4592;-86
2023/12/08 00:39:07;;;;;;;5.43;2.88;;;;;;;3.07;81.06;98882.84;330988;29;18582;-86
2023/12/08 00:39:19;;;;;;;6.35;2.95;;;;;;;3.05;80.52;98888.91;331166;29;9679;-86
2023/12/08 00:39:31;;;;;;;6.05;3.15;;;;;;;3.00;80.67;98881.25;332240;29;4551;-86
2023/12/08 00:39:43;;;;;;;5.18;2.83;;;;;;;3.00;80.67;98886.41;331035;29;4559;-87
2023/12/08 00:39:55;;;;;;;5.20;2.80;;;;;;;2.98;80.61;98883.00;328204;29;16873;-88
2023/12/08 00:40:08;;;;;;;6.07;3.45;;;;;;;2.97;80.20;98884.69;329745;29;4634;-86
2023/12/08 00:40:20;;;;;;;5.60;3.65;;;;;;;2.76;80.52;98888.44;330276;29;4517;-85
2023/12/08 00:40:32;;;;;;;5.50;3.22;;;;;;;2.82;80.76;98890.06;326925;29;16650;-87
2023/12/08 00:40:44;;;;;;;5.65;2.80;;;;;;;2.83;81.08;98893.47;333940;29;4641;-87
2023/12/08 00:40:56;;;;;;;5.63;2.40;;;;;;;2.83;81.26;98893.47;332277;29;16395;-86
2023/12/08 00:41:09;;;;;;;4.70;2.63;;;;;;;2.88;80.98;98896.81;335101;29;4535;-86
2023/12/08 00:41:22;;;;;;;5.60;2.63;;;;;;;2.85;81.77;98896.88;331879;29;16216;-86
2023/12/08 00:41:34;;;;;;;6.35;2.55;;;;;;;2.87;81.67;98887.44;333395;29;4569;-86
2023/12/08 00:41:46;;;;;;;5.20;2.55;;;;;;;2.87;81.67;98895.13;326027;29;9859;-87
2023/12/08 00:41:58;;;;;;;3.83;2.53;;;;;;;2.85;81.70;98896.88;334181;29;4589;-86
2023/12/08 00:42:10;;;;;;;4.07;2.50;;;;;;;2.85;81.54;98897.72;331016;29;11069;-87
2023/12/08 00:42:22;;;;;;;4.90;2.40;;;;;;;2.89;81.57;98890.81;332292;29;4539;-86
2023/12/08 00:42:34;;;;;;;5.10;2.42;;;;;;;2.92;81.37;98894.19;332433;29;4528;-87
2023/12/08 00:42:47;;;;;;;5.43;2.78;;;;;;;2.95;81.20;98895.88;327094;29;17731;-88
2023/12/08 00:42:59;;;;;;;5.65;2.95;;;;;;;2.96;80.99;98900.16;333480;29;4669;-87
2023/12/08 00:43:11;;;;;;;4.70;2.83;;;;;;;2.96;80.93;98900.16;330770;29;17644;-87
2023/12/08 00:43:23;;;;;;;4.72;2.72;;;;;;;2.97;80.99;98896.69;330087;29;13415;-86
2023/12/08 00:43:35;;;;;;;5.25;2.78;;;;;;;2.99;81.21;98895.78;330278;29;4763;-87
2023/12/08 00:43:47;;;;;;;5.10;2.60;;;;;;;3.01;81.32;98888.09;325301;29;17121;-87
2023/12/08 00:44:00;;;;;;;6.03;2.97;;;;;;;3.04;80.79;98893.19;330060;29;4538;-87
2023/12/08 00:44:12;;;;;;;6.13;3.20;;;;;;;3.07;81.07;98893.13;331462;29;4596;-86
2023/12/08 00:44:24;;;;;;;4.65;2.80;;;;;;;3.09;81.23;98890.53;330306;29;16430;-87
2023/12/08 00:44:37;;;;;;;3.97;2.53;;;;;;;3.08;80.96;98889.69;333790;29;4503;-86
2023/12/08 00:44:49;;;;;;;3.97;2.38;;;;;;;3.10;81.16;98887.09;332182;29;18143;-87
2023/12/08 00:45:02;;;;;;;5.15;2.50;;;;;;;3.12;80.79;98886.22;333800;29;4549;-87
2023/12/08 00:45:15;;;;;;;6.47;2.80;;;;;;;3.10;80.68;98880.25;330662;29;17683;-86
2023/12/08 00:45:27;;;;;;;6.05;3.00;;;;;;;3.13;81.18;98876.78;333576;29;4490;-86
2023/12/08 00:45:39;;;;;;;5.40;2.85;;;;;;;3.09;80.19;98877.72;328214;29;16941;-87
2023/12/08 00:45:51;;;;;;;5.00;2.65;;;;;;;3.10;80.90;98882.81;334742;29;4611;-86
2023/12/08 00:46:03;;;;;;;6.43;2.55;;;;;;;3.12;81.29;98880.22;331150;29;17803;-86
2023/12/08 00:46:17;;;;;;;6.78;2.80;;;;;;;3.10;81.57;98872.56;334071;29;4722;-86
2023/12/08 00:46:29;;;;;;;6.70;2.88;;;;;;;3.13;81.55;98867.34;331259;29;4551;-86
2023/12/08 00:46:42;;;;;;;5.57;2.55;;;;;;;3.13;81.29;98872.50;330512;29;4612;-86
2023/12/08 00:46:54;;;;;;;4.97;2.70;;;;;;;3.17;81.14;98874.16;332256;28;17954;-87
2023/12/08 00:47:05;;;;;;;4.80;2.92;;;;;;;3.13;80.98;98877.63;336053;28;4781;-86
2023/12/08 00:47:17;;;;;;;4.38;2.70;;;;;;;3.14;81.21;98871.63;335827;29;4602;-86
2023/12/08 00:47:30;;;;;;;4.53;2.70;;;;;;;3.20;81.17;98881.81;331015;29;17477;-87
2023/12/08 00:47:42;;;;;;;4.70;2.63;;;;;;;3.14;80.18;98887.03;331084;29;4624;-87
2023/12/08 00:47:54;;;;;;;5.40;3.00;;;;;;;2.95;80.20;98883.03;325720;29;18042;-87
2023/12/08 00:48:07;;;;;;;5.13;3.15;;;;;;;2.96;79.61;98882.19;332969;29;4727;-86
2023/12/08 00:48:19;;;;;;;4.90;3.30;;;;;;;2.96;79.35;98892.44;325011;29;17928;-87
2023/12/08 00:48:31;;;;;;;4.78;2.95;;;;;;;2.99;79.60;98894.97;333694;29;4570;-86
2023/12/08 00:48:43;;;;;;;4.82;2.72;;;;;;;3.00;79.96;98891.53;331055;29;16572;-87
2023/12/08 00:48:56;;;;;;;5.80;2.75;;;;;;;3.01;79.95;98893.22;333267;29;4672;-86
2023/12/08 00:49:08;;;;;;;5.65;2.92;;;;;;;3.00;79.57;98896.66;329901;29;9992;-86
2023/12/08 00:49:20;;;;;;;5.32;2.97;;;;;;;2.97;79.77;98891.56;327343;29;17634;-86
2023/12/08 00:49:32;;;;;;;5.38;2.70;;;;;;;2.96;79.78;98895.03;330667;29;4583;-86
2023/12/08 00:49:44;;;;;;;4.05;2.33;;;;;;;2.95;79.70;98895.88;330194;29;18115;-86
2023/12/08 00:49:57;;;;;;;4.63;2.58;;;;;;;2.93;79.92;98892.47;334966;28;4570;-86
2023/12/08 00:50:09;;;;;;;6.10;3.25;;;;;;;2.95;79.39;98894.16;329390;28;5008;-86
2023/12/08 00:50:21;;;;;;;5.90;3.10;;;;;;;2.88;79.61;98901.94;336083;28;4485;-86
2023/12/08 00:50:33;;;;;;;4.50;2.63;;;;;;;2.90;79.57;98893.38;336199;28;11861;-86
2023/12/08 00:50:45;;;;;;;4.65;2.58;;;;;;;2.89;79.62;98893.38;333381;28;16651;-86
2023/12/08 00:50:57;;;;;;;5.43;2.75;;;;;;;2.83;79.54;98893.47;330285;29;4657;-87
2023/12/08 00:51:12;;;;;;;5.63;2.78;;;;;;;2.88;80.05;98891.69;333148;29;4573;-87
2023/12/08 00:51:24;;;;;;;4.45;2.30;;;;;;;2.89;80.76;98890.81;332612;29;11074;-87
2023/12/08 00:51:36;;;;;;;5.55;2.70;;;;;;;2.93;80.89;98882.22;333301;29;4757;-86
2023/12/08 00:51:48;;;;;;;6.15;2.67;;;;;;;2.97;80.43;98886.44;333752;29;4539;-86
2023/12/08 00:52:00;;;;;;;5.93;2.80;;;;;;;2.98;81.15;98885.56;330932;29;18420;-87
2023/12/08 00:52:12;;;;;;;4.53;2.60;;;;;;;3.03;80.99;98886.34;327883;29;4596;-87
2023/12/08 00:52:25;;;;;;;4.03;2.58;;;;;;;3.05;80.71;98884.59;329794;29;9697;-87
2023/12/08 00:52:37;;;;;;;3.97;2.60;;;;;;;3.07;80.84;98885.41;332043;29;4590;-87
2023/12/08 00:52:49;;;;;;;4.25;2.78;;;;;;;3.10;80.87;98881.94;333126;29;4538;-86
2023/12/08 00:53:01;;;;;;;5.00;2.63;;;;;;;3.12;80.61;98886.22;331379;29;17036;-87
2023/12/08 00:53:13;;;;;;;5.22;2.55;;;;;;;3.09;80.34;98881.13;333609;29;4578;-87
2023/12/08 00:53:25;;;;;;;6.53;2.83;;;;;;;3.06;80.95;98881.19;330757;29;18292;-87
2023/12/08 00:53:37;;;;;;;6.93;2.95;;;;;;;3.03;80.62;98880.38;330950;29;4634;-87
2023/12/08 00:53:49;;;;;;;6.22;2.97;;;;;;;2.98;80.59;98885.56;328229;29;4510;-87
2023/12/08 00:54:02;;;;;;;5.28;2.78;;;;;;;2.99;80.58;98884.69;330184;29;18044;-86
2023/12/08 00:54:14;;;;;;;5.00;2.80;;;;;;;3.03;80.55;98881.22;331281;29;4524;-86
2023/12/08 00:54:26;;;;;;;4.75;2.83;;;;;;;3.06;80.60;98880.31;328685;29;4707;-86
2023/12/08 00:54:38;;;;;;;3.78;2.63;;;;;;;3.03;80.75;98886.34;333477;29;4555;-87
2023/12/08 00:54:50;;;;;;;3.92;2.47;;;;;;;3.03;80.75;98886.34;332300;29;12714;-87
2023/12/08 00:55:02;;;;;;;5.30;2.63;;;;;;;3.05;80.71;98889.72;333529;29;4580;-86
2023/12/08 00:55:14;;;;;;;5.07;2.63;;;;;;;3.08;81.06;98889.69;329393;28;4529;-86
2023/12/08 00:55:26;;;;;;;4.07;2.83;;;;;;;3.11;80.48;98893.94;331044;29;18103;-86
2023/12/08 00:55:38;;;;;;;4.93;2.90;;;;;;;3.12;80.49;98886.22;333536;29;4822;-86
2023/12/08 00:55:50;;;;;;;5.03;2.90;;;;;;;3.15;80.44;98893.88;331637;28;11507;-87
2023/12/08 00:56:03;;;;;;;7.20;3.00;;;;;;;3.14;80.22;98886.16;335020;28;5008;-87
2023/12/08 00:56:15;;;;;;;7.00;2.75;;;;;;;3.04;79.61;98892.31;335054;28;4561;-87
2023/12/08 00:56:28;;;;;;;5.97;2.67;;;;;;;3.09;79.85;98891.38;332306;28;17881;-87
2023/12/08 00:56:40;;;;;;;5.63;2.97;;;;;;;3.12;79.83;98896.50;336078;28;4615;-86
2023/12/08 00:56:52;;;;;;;5.35;2.95;;;;;;;3.16;80.04;98890.44;332190;29;17226;-87
2023/12/08 00:57:04;;;;;;;5.57;2.80;;;;;;;3.13;80.08;98900.75;334401;29;4557;-86
2023/12/08 00:57:16;;;;;;;5.50;2.78;;;;;;;3.13;80.07;98898.16;330989;29;18154;-87
2023/12/08 00:57:28;;;;;;;5.63;2.95;;;;;;;3.15;80.42;98893.88;333856;29;4566;-86
2023/12/08 00:57:40;;;;;;;4.85;2.72;;;;;;;3.15;80.56;98896.44;332346;29;5251;-86
2023/12/08 00:57:53;;;;;;;4.55;2.70;;;;;;;3.20;80.74;98896.38;329021;29;18162;-87
2023/12/08 00:58:05;;;;;;;4.25;2.60;;;;;;;3.19;80.62;98887.81;326964;29;4613;-87
2023/12/08 00:58:17;;;;;;;4.50;2.50;;;;;;;3.19;80.24;98898.06;329912;29;17868;-87
2023/12/08 00:58:29;;;;;;;5.28;2.47;;;;;;;3.22;80.24;98897.22;333022;29;4606;-87
2023/12/08 00:58:41;;;;;;;5.22;2.50;;;;;;;3.22;80.08;98901.47;332631;29;7439;-86
2023/12/08 00:58:53;;;;;;;4.63;2.72;;;;;;;3.18;80.76;98896.41;329850;29;17128;-87
2023/12/08 00:59:05;;;;;;;5.00;3.00;;;;;;;3.23;80.60;98893.75;332160;29;4573;-87
2023/12/08 00:59:17;;;;;;;5.13;3.08;;;;;;;3.25;80.41;98904.00;328873;29;5325;-87
2023/12/08 00:59:29;;;;;;;5.00;2.90;;;;;;;3.25;80.64;98901.44;332212;29;4787;-86
2023/12/08 00:59:41;;;;;;;4.43;2.65;;;;;;;3.27;80.57;98894.56;327859;29;4600;-87
2023/12/08 00:59:53;;;;;;;4.20;2.55;;;;;;;3.22;80.31;98901.47;329554;29;11391;-87